Mona Airport

Jump to: basic info | weather | comments

Related pages: nearby airports | nearby navaids

Basic information (top)

Location: lon 18.075300, lat -67.931000, elev 1 ft / 0 m msl
Status: small_airport

Weather (top)

Current conditions for Punta Cana International Airport 38nm (71km) NW (rec'd 2014/11/01 05:00Z):

MDPC 010500Z 00000KT 9999 FEW018CB SCT020 SCT300 26/25 Q1013 CB/SE

Airport forecast for Punta Cana International Airport 38nm (71km) NW (rec'd 2014/10/31 18:16Z):

TAF COR MDPC 311600Z 3118/0118 16008KT 9999 FEW025 PROB30 3120/3104 8000 -SH BKN018 SCT080 
      BECMG 0100/0103 00000KT

Latest comments (top)

No comments yet for Mona Airport

More... (top)

See also NOTAMs and nearby airports and navaids, or visit the Mona Airport page at the main OurAirports website..